Portada
METAR-TAF:

METAR-TAF

Aeroports :

Boscombe Down, Anglaterra

latitud: 51-10N, longitud: 001-45W, altitud: 124 m

Observació

L'informe es va fer fa 22 minuts, a les 08:50 UTC
Vent 10 kt del Sud-Oest
Temperatura 18°C
Humitat 73%
Pressió 1025 hPa
Visibilitat 10 km o més
Escasses núvols a una alçada de 2000 ft
Cel ennuvolat a una alçada de 4200 ft

METAR: EGDM 220850Z 23010KT 9999 FEW020 BKN042 18/13 Q1025 NOSIG RMK BLU BLU

Hora: 10:12 (09:12 UTC)

Pronòstic

L'informe es va fer fa 1 hora i 50 minuts, a les 07:22 UTC
Pronòstic vàlid del 22 a les 09 UTC al 22 a les 18 UTC
Vent 8 kt del Sud/Sud-Oest
Visibilitat 10 km o més
Núvols disperses a una alçada de 3000 ft

TAF: EGDM 220722Z 2209/2218 21008KT 9999 SCT030

Observacions i pronòstics meteorològics de més de 4000 aeroports (METAR i TAF).

Les estacions disponibles són els punts grocs i vermells al mapa.

Posi el ratolí al punt desitjat per veure el nom de l'estació.

Feu clic per veure les observacions i els pronòstics meteorològics.

Per canviar el mapa: feu clic els botons verds amb una creu de color negre per apropar; al botó verd amb un guió per allunyar la imatge; o en les fletxes verdes per a mapes adjacents.


METAR-TAF: